sensor_id;sensor_type;location;lat;lon;timestamp;temperature;humidity
21306;DHT22;10812;51.838;5.838;2023-02-18T00:01:35;10.50;99.90
21306;DHT22;10812;51.838;5.838;2023-02-18T00:04:04;10.50;99.90
21306;DHT22;10812;51.838;5.838;2023-02-18T00:06:34;10.50;99.90
21306;DHT22;10812;51.838;5.838;2023-02-18T00:09:03;10.50;99.90
21306;DHT22;10812;51.838;5.838;2023-02-18T00:11:34;10.60;99.90
21306;DHT22;10812;51.838;5.838;2023-02-18T00:14:09;10.50;99.90
21306;DHT22;10812;51.838;5.838;2023-02-18T00:16:38;10.60;99.90
21306;DHT22;10812;51.838;5.838;2023-02-18T00:19:11;10.60;99.90
21306;DHT22;10812;51.838;5.838;2023-02-18T00:21:40;10.60;99.90
21306;DHT22;10812;51.838;5.838;2023-02-18T00:24:08;10.60;99.90
21306;DHT22;10812;51.838;5.838;2023-02-18T00:26:38;10.60;99.90
21306;DHT22;10812;51.838;5.838;2023-02-18T00:29:06;10.60;99.90
21306;DHT22;10812;51.838;5.838;2023-02-18T00:31:36;10.60;99.90
21306;DHT22;10812;51.838;5.838;2023-02-18T00:34:04;10.60;99.90
21306;DHT22;10812;51.838;5.838;2023-02-18T00:36:34;10.60;99.90
21306;DHT22;10812;51.838;5.838;2023-02-18T00:39:07;10.60;99.90
21306;DHT22;10812;51.838;5.838;2023-02-18T00:41:35;10.70;99.90
21306;DHT22;10812;51.838;5.838;2023-02-18T00:44:04;10.70;99.90
21306;DHT22;10812;51.838;5.838;2023-02-18T00:46:33;10.70;99.90
21306;DHT22;10812;51.838;5.838;2023-02-18T00:49:02;10.60;99.90
21306;DHT22;10812;51.838;5.838;2023-02-18T00:51:30;10.60;99.90
21306;DHT22;10812;51.838;5.838;2023-02-18T00:54:00;10.70;99.90
21306;DHT22;10812;51.838;5.838;2023-02-18T00:56:28;10.70;99.90
21306;DHT22;10812;51.838;5.838;2023-02-18T00:58:56;10.70;99.90
21306;DHT22;10812;51.838;5.838;2023-02-18T01:01:25;10.70;99.90
21306;DHT22;10812;51.838;5.838;2023-02-18T01:03:53;10.70;99.90
21306;DHT22;10812;51.838;5.838;2023-02-18T01:06:21;10.70;99.90
21306;DHT22;10812;51.838;5.838;2023-02-18T01:08:50;10.70;99.90
21306;DHT22;10812;51.838;5.838;2023-02-18T01:11:19;10.70;99.90
21306;DHT22;10812;51.838;5.838;2023-02-18T01:13:47;10.80;99.90
21306;DHT22;10812;51.838;5.838;2023-02-18T01:16:16;10.70;99.90
21306;DHT22;10812;51.838;5.838;2023-02-18T01:18:44;10.80;99.90
21306;DHT22;10812;51.838;5.838;2023-02-18T01:21:12;10.70;99.90
21306;DHT22;10812;51.838;5.838;2023-02-18T01:23:41;10.80;99.90
21306;DHT22;10812;51.838;5.838;2023-02-18T01:26:10;10.80;99.90
21306;DHT22;10812;51.838;5.838;2023-02-18T01:28:40;10.80;99.90
21306;DHT22;10812;51.838;5.838;2023-02-18T01:31:10;10.90;99.90
21306;DHT22;10812;51.838;5.838;2023-02-18T01:33:39;10.90;99.90
21306;DHT22;10812;51.838;5.838;2023-02-18T01:36:09;10.90;99.90
21306;DHT22;10812;51.838;5.838;2023-02-18T01:38:38;10.90;99.90
21306;DHT22;10812;51.838;5.838;2023-02-18T01:41:06;10.90;99.90
21306;DHT22;10812;51.838;5.838;2023-02-18T01:43:35;10.90;99.90
21306;DHT22;10812;51.838;5.838;2023-02-18T01:46:11;10.90;99.90
21306;DHT22;10812;51.838;5.838;2023-02-18T01:48:42;10.90;99.90
21306;DHT22;10812;51.838;5.838;2023-02-18T01:51:12;10.80;99.90
21306;DHT22;10812;51.838;5.838;2023-02-18T01:53:47;10.90;99.90
21306;DHT22;10812;51.838;5.838;2023-02-18T01:56:23;10.90;99.90
21306;DHT22;10812;51.838;5.838;2023-02-18T01:58:54;10.80;99.90
21306;DHT22;10812;51.838;5.838;2023-02-18T02:01:25;10.90;99.90
21306;DHT22;10812;51.838;5.838;2023-02-18T02:03:54;10.90;99.90
21306;DHT22;10812;51.838;5.838;2023-02-18T02:06:23;10.90;99.90
21306;DHT22;10812;51.838;5.838;2023-02-18T02:08:54;11.00;99.90
21306;DHT22;10812;51.838;5.838;2023-02-18T02:11:32;11.00;99.90
21306;DHT22;10812;51.838;5.838;2023-02-18T02:14:15;11.00;99.90
21306;DHT22;10812;51.838;5.838;2023-02-18T02:16:54;11.10;99.90
21306;DHT22;10812;51.838;5.838;2023-02-18T02:20:02;11.10;99.90
21306;DHT22;10812;51.838;5.838;2023-02-18T02:28:59;10.90;99.90
21306;DHT22;10812;51.838;5.838;2023-02-18T02:31:45;10.90;99.90
21306;DHT22;10812;51.838;5.838;2023-02-18T02:34:33;10.90;99.90
21306;DHT22;10812;51.838;5.838;2023-02-18T02:37:11;10.80;99.90
21306;DHT22;10812;51.838;5.838;2023-02-18T02:39:49;10.90;99.90
21306;DHT22;10812;51.838;5.838;2023-02-18T02:42:29;10.90;99.90
21306;DHT22;10812;51.838;5.838;2023-02-18T02:45:03;11.00;99.90
21306;DHT22;10812;51.838;5.838;2023-02-18T02:47:39;11.00;99.90
21306;DHT22;10812;51.838;5.838;2023-02-18T02:50:16;10.90;99.90
21306;DHT22;10812;51.838;5.838;2023-02-18T02:52:51;10.90;99.90
21306;DHT22;10812;51.838;5.838;2023-02-18T02:55:20;10.90;99.90
21306;DHT22;10812;51.838;5.838;2023-02-18T02:57:50;10.90;99.90
21306;DHT22;10812;51.838;5.838;2023-02-18T03:08:33;10.90;99.90
21306;DHT22;10812;51.838;5.838;2023-02-18T03:11:08;11.00;99.90
21306;DHT22;10812;51.838;5.838;2023-02-18T03:13:50;10.90;99.90
21306;DHT22;10812;51.838;5.838;2023-02-18T03:16:25;11.00;99.90
21306;DHT22;10812;51.838;5.838;2023-02-18T03:19:00;10.90;99.90
21306;DHT22;10812;51.838;5.838;2023-02-18T03:21:32;10.90;99.90
21306;DHT22;10812;51.838;5.838;2023-02-18T03:24:07;10.90;99.90
21306;DHT22;10812;51.838;5.838;2023-02-18T03:26:41;10.90;99.90
21306;DHT22;10812;51.838;5.838;2023-02-18T03:29:11;10.90;99.90
21306;DHT22;10812;51.838;5.838;2023-02-18T03:31:43;10.90;99.90
21306;DHT22;10812;51.838;5.838;2023-02-18T03:34:16;10.80;99.90
21306;DHT22;10812;51.838;5.838;2023-02-18T03:36:45;10.90;99.90
21306;DHT22;10812;51.838;5.838;2023-02-18T03:39:17;10.90;99.90
21306;DHT22;10812;51.838;5.838;2023-02-18T03:41:45;10.80;99.90
21306;DHT22;10812;51.838;5.838;2023-02-18T03:44:13;10.80;99.90
21306;DHT22;10812;51.838;5.838;2023-02-18T03:46:42;10.80;99.90
21306;DHT22;10812;51.838;5.838;2023-02-18T04:04:35;10.70;99.90
21306;DHT22;10812;51.838;5.838;2023-02-18T04:07:03;10.70;99.90
21306;DHT22;10812;51.838;5.838;2023-02-18T04:09:31;10.70;99.90
21306;DHT22;10812;51.838;5.838;2023-02-18T04:11:59;10.70;99.90
21306;DHT22;10812;51.838;5.838;2023-02-18T04:14:27;10.70;99.90
21306;DHT22;10812;51.838;5.838;2023-02-18T04:16:55;10.70;99.90
21306;DHT22;10812;51.838;5.838;2023-02-18T04:19:24;10.60;99.90
21306;DHT22;10812;51.838;5.838;2023-02-18T04:21:53;10.70;99.90
21306;DHT22;10812;51.838;5.838;2023-02-18T04:24:21;10.60;99.90
21306;DHT22;10812;51.838;5.838;2023-02-18T04:26:49;10.60;99.90
21306;DHT22;10812;51.838;5.838;2023-02-18T04:29:17;10.60;99.90
21306;DHT22;10812;51.838;5.838;2023-02-18T04:31:45;10.60;99.90
21306;DHT22;10812;51.838;5.838;2023-02-18T04:34:14;10.60;99.90
21306;DHT22;10812;51.838;5.838;2023-02-18T04:36:42;10.60;99.90
21306;DHT22;10812;51.838;5.838;2023-02-18T04:39:11;10.60;99.90
21306;DHT22;10812;51.838;5.838;2023-02-18T04:41:39;10.60;99.90
21306;DHT22;10812;51.838;5.838;2023-02-18T04:44:07;10.60;99.90
21306;DHT22;10812;51.838;5.838;2023-02-18T04:46:35;10.60;99.90
21306;DHT22;10812;51.838;5.838;2023-02-18T04:49:04;10.60;99.90
21306;DHT22;10812;51.838;5.838;2023-02-18T04:51:32;10.60;99.90
21306;DHT22;10812;51.838;5.838;2023-02-18T04:54:00;10.60;99.90
21306;DHT22;10812;51.838;5.838;2023-02-18T04:56:29;10.50;99.90
21306;DHT22;10812;51.838;5.838;2023-02-18T04:58:57;10.60;99.90
21306;DHT22;10812;51.838;5.838;2023-02-18T05:01:26;10.60;99.90
21306;DHT22;10812;51.838;5.838;2023-02-18T05:03:54;10.60;99.90
21306;DHT22;10812;51.838;5.838;2023-02-18T05:06:22;10.60;99.90
21306;DHT22;10812;51.838;5.838;2023-02-18T05:08:50;10.60;99.90
21306;DHT22;10812;51.838;5.838;2023-02-18T05:11:18;10.60;99.90
21306;DHT22;10812;51.838;5.838;2023-02-18T05:13:48;10.60;99.90
21306;DHT22;10812;51.838;5.838;2023-02-18T05:16:16;10.60;99.90
21306;DHT22;10812;51.838;5.838;2023-02-18T05:18:44;10.50;99.90
21306;DHT22;10812;51.838;5.838;2023-02-18T05:21:12;10.60;99.90
21306;DHT22;10812;51.838;5.838;2023-02-18T05:23:40;10.60;99.90
21306;DHT22;10812;51.838;5.838;2023-02-18T05:26:08;10.60;99.90
21306;DHT22;10812;51.838;5.838;2023-02-18T05:28:37;10.60;99.90
21306;DHT22;10812;51.838;5.838;2023-02-18T05:31:06;10.60;99.90
21306;DHT22;10812;51.838;5.838;2023-02-18T05:33:34;10.60;99.90
21306;DHT22;10812;51.838;5.838;2023-02-18T05:36:03;10.60;99.90
21306;DHT22;10812;51.838;5.838;2023-02-18T05:38:31;10.50;99.90
21306;DHT22;10812;51.838;5.838;2023-02-18T05:41:00;10.50;99.90
21306;DHT22;10812;51.838;5.838;2023-02-18T05:43:28;10.50;99.90
21306;DHT22;10812;51.838;5.838;2023-02-18T05:45:56;10.50;99.90
21306;DHT22;10812;51.838;5.838;2023-02-18T05:48:26;10.50;99.90
21306;DHT22;10812;51.838;5.838;2023-02-18T05:50:54;10.50;99.90
21306;DHT22;10812;51.838;5.838;2023-02-18T05:53:22;10.50;99.90
21306;DHT22;10812;51.838;5.838;2023-02-18T05:55:50;10.50;99.90
21306;DHT22;10812;51.838;5.838;2023-02-18T05:58:18;10.50;99.90
21306;DHT22;10812;51.838;5.838;2023-02-18T06:00:47;10.50;99.90
21306;DHT22;10812;51.838;5.838;2023-02-18T06:03:15;10.50;99.90
21306;DHT22;10812;51.838;5.838;2023-02-18T06:05:44;10.50;99.90
21306;DHT22;10812;51.838;5.838;2023-02-18T06:08:16;10.50;99.90
21306;DHT22;10812;51.838;5.838;2023-02-18T06:10:46;10.40;99.90
21306;DHT22;10812;51.838;5.838;2023-02-18T06:13:14;10.50;99.90
21306;DHT22;10812;51.838;5.838;2023-02-18T06:15:42;10.50;99.90
21306;DHT22;10812;51.838;5.838;2023-02-18T06:18:10;10.40;99.90
21306;DHT22;10812;51.838;5.838;2023-02-18T06:20:39;10.50;99.90
21306;DHT22;10812;51.838;5.838;2023-02-18T06:23:09;10.50;99.90
21306;DHT22;10812;51.838;5.838;2023-02-18T06:25:37;10.40;99.90
21306;DHT22;10812;51.838;5.838;2023-02-18T06:28:05;10.50;99.90
21306;DHT22;10812;51.838;5.838;2023-02-18T06:30:34;10.50;99.90
21306;DHT22;10812;51.838;5.838;2023-02-18T06:33:02;10.40;99.90
21306;DHT22;10812;51.838;5.838;2023-02-18T06:35:31;10.40;99.90
21306;DHT22;10812;51.838;5.838;2023-02-18T06:37:59;10.40;99.90
21306;DHT22;10812;51.838;5.838;2023-02-18T06:40:29;10.40;99.90
21306;DHT22;10812;51.838;5.838;2023-02-18T06:42:57;10.40;99.90
21306;DHT22;10812;51.838;5.838;2023-02-18T06:45:25;10.40;99.90
21306;DHT22;10812;51.838;5.838;2023-02-18T06:47:54;10.40;99.90
21306;DHT22;10812;51.838;5.838;2023-02-18T06:50:23;10.40;99.90
21306;DHT22;10812;51.838;5.838;2023-02-18T06:52:51;10.40;99.90
21306;DHT22;10812;51.838;5.838;2023-02-18T06:55:19;10.40;99.90
21306;DHT22;10812;51.838;5.838;2023-02-18T06:57:49;10.40;99.90
21306;DHT22;10812;51.838;5.838;2023-02-18T07:00:17;10.40;99.90
21306;DHT22;10812;51.838;5.838;2023-02-18T07:02:45;10.40;99.90
21306;DHT22;10812;51.838;5.838;2023-02-18T07:05:14;10.30;99.90
21306;DHT22;10812;51.838;5.838;2023-02-18T07:07:42;10.30;99.90
21306;DHT22;10812;51.838;5.838;2023-02-18T07:10:11;10.30;99.90
21306;DHT22;10812;51.838;5.838;2023-02-18T07:12:39;10.30;99.90
21306;DHT22;10812;51.838;5.838;2023-02-18T07:15:09;10.30;99.90
21306;DHT22;10812;51.838;5.838;2023-02-18T07:17:37;10.30;99.90
21306;DHT22;10812;51.838;5.838;2023-02-18T07:20:07;10.30;99.90
21306;DHT22;10812;51.838;5.838;2023-02-18T07:22:35;10.20;99.90
21306;DHT22;10812;51.838;5.838;2023-02-18T07:25:04;10.30;99.90
21306;DHT22;10812;51.838;5.838;2023-02-18T07:27:32;10.30;99.90
21306;DHT22;10812;51.838;5.838;2023-02-18T07:30:00;10.30;99.90
21306;DHT22;10812;51.838;5.838;2023-02-18T07:32:30;10.30;99.90
21306;DHT22;10812;51.838;5.838;2023-02-18T07:34:58;10.30;99.90
21306;DHT22;10812;51.838;5.838;2023-02-18T07:37:26;10.30;99.90
21306;DHT22;10812;51.838;5.838;2023-02-18T07:39:55;10.20;99.90
21306;DHT22;10812;51.838;5.838;2023-02-18T07:42:23;10.30;99.90
21306;DHT22;10812;51.838;5.838;2023-02-18T07:44:51;10.30;99.90
21306;DHT22;10812;51.838;5.838;2023-02-18T07:47:19;10.30;99.90
21306;DHT22;10812;51.838;5.838;2023-02-18T07:49:50;10.40;99.90
21306;DHT22;10812;51.838;5.838;2023-02-18T07:52:18;10.30;99.90
21306;DHT22;10812;51.838;5.838;2023-02-18T07:54:46;10.30;99.90
21306;DHT22;10812;51.838;5.838;2023-02-18T07:57:14;10.30;99.90
21306;DHT22;10812;51.838;5.838;2023-02-18T07:59:42;10.20;99.90
21306;DHT22;10812;51.838;5.838;2023-02-18T08:02:17;10.30;99.90
21306;DHT22;10812;51.838;5.838;2023-02-18T08:04:46;10.30;99.90
21306;DHT22;10812;51.838;5.838;2023-02-18T08:07:17;10.20;99.90
21306;DHT22;10812;51.838;5.838;2023-02-18T08:09:46;10.20;99.90
21306;DHT22;10812;51.838;5.838;2023-02-18T08:12:16;10.20;99.90
21306;DHT22;10812;51.838;5.838;2023-02-18T08:14:44;10.20;99.90
21306;DHT22;10812;51.838;5.838;2023-02-18T08:17:13;10.20;99.90
21306;DHT22;10812;51.838;5.838;2023-02-18T08:19:41;10.20;99.90
21306;DHT22;10812;51.838;5.838;2023-02-18T08:22:09;10.20;99.90
21306;DHT22;10812;51.838;5.838;2023-02-18T08:24:39;10.20;99.90
21306;DHT22;10812;51.838;5.838;2023-02-18T08:27:07;10.20;99.90
21306;DHT22;10812;51.838;5.838;2023-02-18T08:29:35;10.30;99.90
21306;DHT22;10812;51.838;5.838;2023-02-18T08:32:03;10.40;99.90
21306;DHT22;10812;51.838;5.838;2023-02-18T08:34:31;10.40;99.90
21306;DHT22;10812;51.838;5.838;2023-02-18T08:37:01;10.50;99.90
21306;DHT22;10812;51.838;5.838;2023-02-18T08:39:33;10.60;99.90
21306;DHT22;10812;51.838;5.838;2023-02-18T08:42:02;10.50;99.90
21306;DHT22;10812;51.838;5.838;2023-02-18T08:44:31;10.50;99.90
21306;DHT22;10812;51.838;5.838;2023-02-18T08:46:59;10.60;99.90
21306;DHT22;10812;51.838;5.838;2023-02-18T08:49:27;10.50;99.90
21306;DHT22;10812;51.838;5.838;2023-02-18T08:51:56;10.50;99.90
21306;DHT22;10812;51.838;5.838;2023-02-18T08:54:24;10.50;99.90
21306;DHT22;10812;51.838;5.838;2023-02-18T08:56:53;10.40;99.90
21306;DHT22;10812;51.838;5.838;2023-02-18T08:59:24;10.40;99.90
21306;DHT22;10812;51.838;5.838;2023-02-18T09:01:53;10.30;99.90
21306;DHT22;10812;51.838;5.838;2023-02-18T09:04:21;10.30;99.90
21306;DHT22;10812;51.838;5.838;2023-02-18T09:06:49;10.30;99.90
21306;DHT22;10812;51.838;5.838;2023-02-18T09:09:17;10.30;99.90
21306;DHT22;10812;51.838;5.838;2023-02-18T09:11:46;10.30;99.90
21306;DHT22;10812;51.838;5.838;2023-02-18T09:14:14;10.30;99.90
21306;DHT22;10812;51.838;5.838;2023-02-18T09:16:43;10.30;99.90
21306;DHT22;10812;51.838;5.838;2023-02-18T09:19:12;10.20;99.90
21306;DHT22;10812;51.838;5.838;2023-02-18T09:21:40;10.20;99.90
21306;DHT22;10812;51.838;5.838;2023-02-18T09:24:08;10.10;99.90
21306;DHT22;10812;51.838;5.838;2023-02-18T09:26:37;10.10;99.90
21306;DHT22;10812;51.838;5.838;2023-02-18T09:29:06;10.20;99.90
21306;DHT22;10812;51.838;5.838;2023-02-18T09:31:34;10.10;99.90
21306;DHT22;10812;51.838;5.838;2023-02-18T09:34:05;10.10;99.90
21306;DHT22;10812;51.838;5.838;2023-02-18T09:36:33;10.00;99.90
21306;DHT22;10812;51.838;5.838;2023-02-18T09:39:01;9.90;99.90
21306;DHT22;10812;51.838;5.838;2023-02-18T09:41:37;9.90;99.90
21306;DHT22;10812;51.838;5.838;2023-02-18T09:44:11;9.90;99.90
21306;DHT22;10812;51.838;5.838;2023-02-18T09:46:45;9.90;99.90
21306;DHT22;10812;51.838;5.838;2023-02-18T09:49:20;9.90;99.90
21306;DHT22;10812;51.838;5.838;2023-02-18T09:51:50;9.80;99.90
21306;DHT22;10812;51.838;5.838;2023-02-18T09:54:20;9.90;99.90
21306;DHT22;10812;51.838;5.838;2023-02-18T09:56:49;9.90;99.90
21306;DHT22;10812;51.838;5.838;2023-02-18T09:59:20;9.90;99.90
21306;DHT22;10812;51.838;5.838;2023-02-18T10:01:51;9.90;99.90
21306;DHT22;10812;51.838;5.838;2023-02-18T10:04:26;9.90;99.90
21306;DHT22;10812;51.838;5.838;2023-02-18T10:06:56;10.00;99.90
21306;DHT22;10812;51.838;5.838;2023-02-18T10:09:30;10.00;99.90
21306;DHT22;10812;51.838;5.838;2023-02-18T10:12:06;10.00;99.90
21306;DHT22;10812;51.838;5.838;2023-02-18T10:14:38;10.00;99.90
21306;DHT22;10812;51.838;5.838;2023-02-18T10:17:06;10.10;99.90
21306;DHT22;10812;51.838;5.838;2023-02-18T10:19:37;10.00;99.90
21306;DHT22;10812;51.838;5.838;2023-02-18T10:22:08;10.10;99.90
21306;DHT22;10812;51.838;5.838;2023-02-18T10:24:43;10.10;99.90
21306;DHT22;10812;51.838;5.838;2023-02-18T10:27:18;10.10;99.90
21306;DHT22;10812;51.838;5.838;2023-02-18T10:29:48;10.10;99.90
21306;DHT22;10812;51.838;5.838;2023-02-18T10:32:20;10.20;99.90
21306;DHT22;10812;51.838;5.838;2023-02-18T10:34:53;10.30;99.90
21306;DHT22;10812;51.838;5.838;2023-02-18T10:37:48;10.20;99.90
21306;DHT22;10812;51.838;5.838;2023-02-18T10:40:25;10.20;99.90
21306;DHT22;10812;51.838;5.838;2023-02-18T10:43:03;10.20;99.90
21306;DHT22;10812;51.838;5.838;2023-02-18T10:45:40;10.20;99.90
21306;DHT22;10812;51.838;5.838;2023-02-18T10:48:25;10.20;99.90
21306;DHT22;10812;51.838;5.838;2023-02-18T10:50:59;10.20;99.90
21306;DHT22;10812;51.838;5.838;2023-02-18T10:53:32;10.30;99.90
21306;DHT22;10812;51.838;5.838;2023-02-18T10:56:01;10.30;99.90
21306;DHT22;10812;51.838;5.838;2023-02-18T10:58:32;10.30;99.90
21306;DHT22;10812;51.838;5.838;2023-02-18T11:01:03;10.30;99.90
21306;DHT22;10812;51.838;5.838;2023-02-18T11:03:40;10.20;99.90
21306;DHT22;10812;51.838;5.838;2023-02-18T11:06:20;10.20;99.90
21306;DHT22;10812;51.838;5.838;2023-02-18T11:08:49;10.10;99.90
21306;DHT22;10812;51.838;5.838;2023-02-18T11:11:23;10.00;99.90
21306;DHT22;10812;51.838;5.838;2023-02-18T11:13:53;10.00;99.90
21306;DHT22;10812;51.838;5.838;2023-02-18T11:16:22;10.00;99.90
21306;DHT22;10812;51.838;5.838;2023-02-18T11:18:53;10.00;99.90
21306;DHT22;10812;51.838;5.838;2023-02-18T11:21:29;10.00;99.90
21306;DHT22;10812;51.838;5.838;2023-02-18T11:24:06;10.00;99.90
21306;DHT22;10812;51.838;5.838;2023-02-18T11:26:36;10.00;99.90
21306;DHT22;10812;51.838;5.838;2023-02-18T11:29:09;10.00;99.90
21306;DHT22;10812;51.838;5.838;2023-02-18T11:31:43;10.10;99.90
21306;DHT22;10812;51.838;5.838;2023-02-18T11:34:15;10.20;99.90
21306;DHT22;10812;51.838;5.838;2023-02-18T11:36:46;10.20;99.90
21306;DHT22;10812;51.838;5.838;2023-02-18T11:39:19;10.20;99.90
21306;DHT22;10812;51.838;5.838;2023-02-18T11:41:53;10.30;99.90
21306;DHT22;10812;51.838;5.838;2023-02-18T11:44:27;10.40;99.90
21306;DHT22;10812;51.838;5.838;2023-02-18T11:47:00;10.50;99.90
21306;DHT22;10812;51.838;5.838;2023-02-18T11:49:28;10.60;99.90
21306;DHT22;10812;51.838;5.838;2023-02-18T11:52:09;10.70;99.90
21306;DHT22;10812;51.838;5.838;2023-02-18T11:54:41;10.90;99.90
21306;DHT22;10812;51.838;5.838;2023-02-18T11:57:12;11.00;99.90
21306;DHT22;10812;51.838;5.838;2023-02-18T11:59:41;11.00;99.90
21306;DHT22;10812;51.838;5.838;2023-02-18T12:02:25;11.10;99.90
21306;DHT22;10812;51.838;5.838;2023-02-18T12:04:58;11.20;99.90
21306;DHT22;10812;51.838;5.838;2023-02-18T12:07:38;11.20;99.90
21306;DHT22;10812;51.838;5.838;2023-02-18T12:10:13;11.20;99.90
21306;DHT22;10812;51.838;5.838;2023-02-18T12:12:45;11.10;99.90
21306;DHT22;10812;51.838;5.838;2023-02-18T12:15:17;11.10;99.90
21306;DHT22;10812;51.838;5.838;2023-02-18T12:18:01;11.10;99.90
21306;DHT22;10812;51.838;5.838;2023-02-18T12:20:44;11.10;99.90
21306;DHT22;10812;51.838;5.838;2023-02-18T12:23:23;11.20;99.90
21306;DHT22;10812;51.838;5.838;2023-02-18T12:25:57;11.10;99.90
21306;DHT22;10812;51.838;5.838;2023-02-18T12:28:50;11.20;99.90
21306;DHT22;10812;51.838;5.838;2023-02-18T12:31:42;11.30;99.90
21306;DHT22;10812;51.838;5.838;2023-02-18T12:34:30;11.50;99.90
21306;DHT22;10812;51.838;5.838;2023-02-18T12:37:26;11.60;99.90
21306;DHT22;10812;51.838;5.838;2023-02-18T12:40:06;11.70;99.90
21306;DHT22;10812;51.838;5.838;2023-02-18T12:42:52;11.80;99.90
21306;DHT22;10812;51.838;5.838;2023-02-18T12:45:38;11.70;99.90
21306;DHT22;10812;51.838;5.838;2023-02-18T12:48:26;11.80;99.90
21306;DHT22;10812;51.838;5.838;2023-02-18T12:51:17;11.70;99.90
21306;DHT22;10812;51.838;5.838;2023-02-18T12:54:12;11.60;99.90
21306;DHT22;10812;51.838;5.838;2023-02-18T12:57:10;11.50;99.90
21306;DHT22;10812;51.838;5.838;2023-02-18T13:02:53;11.40;99.90
21306;DHT22;10812;51.838;5.838;2023-02-18T13:05:34;11.40;99.90
21306;DHT22;10812;51.838;5.838;2023-02-18T13:08:23;11.40;99.90
21306;DHT22;10812;51.838;5.838;2023-02-18T13:11:06;11.40;99.90
21306;DHT22;10812;51.838;5.838;2023-02-18T13:13:40;11.40;99.90
21306;DHT22;10812;51.838;5.838;2023-02-18T13:16:12;11.40;99.90
21306;DHT22;10812;51.838;5.838;2023-02-18T13:18:44;11.50;99.90
21306;DHT22;10812;51.838;5.838;2023-02-18T13:21:15;11.70;99.90
21306;DHT22;10812;51.838;5.838;2023-02-18T13:23:51;11.80;99.90
21306;DHT22;10812;51.838;5.838;2023-02-18T13:26:20;11.80;99.90
21306;DHT22;10812;51.838;5.838;2023-02-18T13:29:02;11.80;99.90
21306;DHT22;10812;51.838;5.838;2023-02-18T13:31:40;11.70;99.90
21306;DHT22;10812;51.838;5.838;2023-02-18T13:34:14;11.70;99.90
21306;DHT22;10812;51.838;5.838;2023-02-18T13:36:50;11.60;99.90
21306;DHT22;10812;51.838;5.838;2023-02-18T13:39:22;11.60;99.90
21306;DHT22;10812;51.838;5.838;2023-02-18T13:41:51;11.60;99.90
21306;DHT22;10812;51.838;5.838;2023-02-18T13:45:05;11.50;99.90
21306;DHT22;10812;51.838;5.838;2023-02-18T13:47:38;11.60;99.90
21306;DHT22;10812;51.838;5.838;2023-02-18T13:50:24;11.60;99.90
21306;DHT22;10812;51.838;5.838;2023-02-18T13:55:53;11.50;99.90
21306;DHT22;10812;51.838;5.838;2023-02-18T13:58:27;11.60;99.90
21306;DHT22;10812;51.838;5.838;2023-02-18T14:01:00;11.60;99.90
21306;DHT22;10812;51.838;5.838;2023-02-18T14:03:34;11.60;99.90
21306;DHT22;10812;51.838;5.838;2023-02-18T14:06:22;11.70;99.90
21306;DHT22;10812;51.838;5.838;2023-02-18T14:09:01;11.70;99.90
21306;DHT22;10812;51.838;5.838;2023-02-18T14:11:38;11.60;99.90
21306;DHT22;10812;51.838;5.838;2023-02-18T14:14:35;11.70;99.90
21306;DHT22;10812;51.838;5.838;2023-02-18T14:17:34;11.70;99.90
21306;DHT22;10812;51.838;5.838;2023-02-18T14:20:29;11.70;99.90
21306;DHT22;10812;51.838;5.838;2023-02-18T14:22:58;11.70;99.90
21306;DHT22;10812;51.838;5.838;2023-02-18T14:25:34;11.70;99.90
21306;DHT22;10812;51.838;5.838;2023-02-18T14:28:37;11.70;99.90
21306;DHT22;10812;51.838;5.838;2023-02-18T14:31:27;11.70;99.90
21306;DHT22;10812;51.838;5.838;2023-02-18T14:34:19;11.80;99.90
21306;DHT22;10812;51.838;5.838;2023-02-18T14:36:57;11.90;99.90
21306;DHT22;10812;51.838;5.838;2023-02-18T14:39:37;11.90;99.90
21306;DHT22;10812;51.838;5.838;2023-02-18T14:42:15;11.90;99.90
21306;DHT22;10812;51.838;5.838;2023-02-18T14:50:51;12.10;99.90
21306;DHT22;10812;51.838;5.838;2023-02-18T14:53:21;12.10;99.90
21306;DHT22;10812;51.838;5.838;2023-02-18T14:55:53;12.10;99.90
21306;DHT22;10812;51.838;5.838;2023-02-18T14:58:28;12.20;99.90
21306;DHT22;10812;51.838;5.838;2023-02-18T15:01:05;12.20;99.90
21306;DHT22;10812;51.838;5.838;2023-02-18T15:03:33;12.20;99.90
21306;DHT22;10812;51.838;5.838;2023-02-18T15:06:03;12.20;99.90
21306;DHT22;10812;51.838;5.838;2023-02-18T15:08:37;12.10;99.90
21306;DHT22;10812;51.838;5.838;2023-02-18T15:11:06;12.20;99.90
21306;DHT22;10812;51.838;5.838;2023-02-18T15:13:37;12.20;99.90
21306;DHT22;10812;51.838;5.838;2023-02-18T15:16:14;12.20;99.90
21306;DHT22;10812;51.838;5.838;2023-02-18T15:18:48;12.20;99.90
21306;DHT22;10812;51.838;5.838;2023-02-18T15:21:23;12.10;99.90
21306;DHT22;10812;51.838;5.838;2023-02-18T15:23:52;12.00;99.90
21306;DHT22;10812;51.838;5.838;2023-02-18T15:26:20;12.10;99.90
21306;DHT22;10812;51.838;5.838;2023-02-18T15:28:55;12.00;99.90
21306;DHT22;10812;51.838;5.838;2023-02-18T15:31:26;12.00;99.90
21306;DHT22;10812;51.838;5.838;2023-02-18T15:33:55;11.90;99.90
21306;DHT22;10812;51.838;5.838;2023-02-18T15:36:25;12.00;99.90
21306;DHT22;10812;51.838;5.838;2023-02-18T15:38:56;11.90;99.90
21306;DHT22;10812;51.838;5.838;2023-02-18T15:41:24;11.90;99.90
21306;DHT22;10812;51.838;5.838;2023-02-18T15:43:54;11.90;99.90
21306;DHT22;10812;51.838;5.838;2023-02-18T15:46:23;11.80;99.90
21306;DHT22;10812;51.838;5.838;2023-02-18T15:48:53;11.90;99.90
21306;DHT22;10812;51.838;5.838;2023-02-18T15:51:25;11.80;99.90
21306;DHT22;10812;51.838;5.838;2023-02-18T15:53:56;11.90;99.90
21306;DHT22;10812;51.838;5.838;2023-02-18T15:56:29;11.80;99.90
21306;DHT22;10812;51.838;5.838;2023-02-18T15:59:08;11.80;99.90
21306;DHT22;10812;51.838;5.838;2023-02-18T16:01:37;11.70;99.90
21306;DHT22;10812;51.838;5.838;2023-02-18T16:04:05;11.60;99.90
21306;DHT22;10812;51.838;5.838;2023-02-18T16:06:37;11.60;99.90
21306;DHT22;10812;51.838;5.838;2023-02-18T16:09:12;11.50;99.90
21306;DHT22;10812;51.838;5.838;2023-02-18T16:11:45;11.40;99.90
21306;DHT22;10812;51.838;5.838;2023-02-18T16:14:26;11.40;99.90
21306;DHT22;10812;51.838;5.838;2023-02-18T16:17:08;11.30;99.90
21306;DHT22;10812;51.838;5.838;2023-02-18T16:19:48;11.30;99.90
21306;DHT22;10812;51.838;5.838;2023-02-18T16:22:41;11.30;99.90
21306;DHT22;10812;51.838;5.838;2023-02-18T16:25:14;11.30;99.90
21306;DHT22;10812;51.838;5.838;2023-02-18T16:27:49;11.20;99.90
21306;DHT22;10812;51.838;5.838;2023-02-18T16:30:20;11.10;99.90
21306;DHT22;10812;51.838;5.838;2023-02-18T16:32:49;11.10;99.90
21306;DHT22;10812;51.838;5.838;2023-02-18T16:35:21;11.10;99.90
21306;DHT22;10812;51.838;5.838;2023-02-18T16:37:52;11.10;99.90
21306;DHT22;10812;51.838;5.838;2023-02-18T16:40:26;11.00;99.90
21306;DHT22;10812;51.838;5.838;2023-02-18T16:42:56;11.00;99.90
21306;DHT22;10812;51.838;5.838;2023-02-18T16:45:32;11.00;99.90
21306;DHT22;10812;51.838;5.838;2023-02-18T16:48:01;11.10;99.90